Missoula, MT

9:35 PM MDT on October 24, 2014 (GMT -0600)
Franklin to the Fort | Change Station
CLOSE
Current Station
Personal Weather Station
Location: Missoula, MT
Elevation: 3200 ft
Nearby Weather Stations

Elev 3200 ft 46.86 °N, 114.02 °W | Updated 8 seconds ago

Overcast
Overcast
46.0 °F
Feels Like 46 °F
N
0.0
Wind Variable Wind from NNE
Gusts 0.0 mph

Today
High -- | Low -- °F
--% Chance of Precip.
Yesterday
High -- | Low -- °F
Precip. -- in
8:06 AM 6:32 PM
New Moon, 2% visible
Pressure 30.12 in
Visibility 10.0 miles
Clouds Few 4100 ft
Overcast 6000 ft
Windchill 46 °F
Dew Point 45 °F
Humidity 98%
Rainfall 0.07 in
Snow Depth 1 in
UV 0 out of 12
Pollen 1.00 out of 12
Air Quality Not available.
Flu Activity No Activity
METAR KMSO 250253Z AUTO 31004KT 10SM -RA FEW041 OVC060 08/08 A3009 RMK AO2 SLP200 P0004 60008 T00780078 58004 TSNO

More Conditions Fewer Conditions

Pressure 30.12 in
Visibility 10.0 miles
Clouds Few 4100 ft
Overcast 6000 ft
Windchill 46 °F
Dew Point 45 °F
Humidity 98%
Rainfall 0.07 in
Snow Depth 1 in
UV 0 out of 12
Pollen 1.00 out of 12
Air Quality Not available.
Flu Activity No Activity
METAR KMSO 250253Z AUTO 31004KT 10SM -RA FEW041 OVC060 08/08 A3009 RMK AO2 SLP200 P0004 60008 T00780078 58004 TSNO

More Conditions Fewer Conditions

10-Day Weather Forecast

Almanac

Astronomy

Oct. 24, 2014 Rise Set
Actual Time 8:06 AM MDT 6:32 PM MDT
Civil Twilight 7:35 AM MDT 7:04 PM MDT
Nautical Twilight 7:00 AM MDT 7:39 PM MDT
Astronomical Twilight 6:25 AM MDT 8:14 PM MDT
Moon 8:52 AM MDT (10/24) 7:12 PM MDT (10/24)
Length of Visible Light 11h 28m
Length of Day
10h 25m
Tomorrow will be 3m 8s shorter.
New Moon, 2% of the Moon is Illuminated
Today
New Moon
Oct 30
First Quarter
Nov 6
Full
Nov 14
Last Quarter
Nov 22
New

Today's Extremes

State Highs State Lows

Community

WunderPhotos

Upload Photos

1,764,771 photos uploaded!

Nearby

Snow Depth

Station Depth Elevation
Stuart Mountain 1 in 7400 ft
North Fork Jocko 0 in 6330 ft
Lubrecht Flume 1 in 4680 ft
North Fork Elk Creek 1 in 6250 ft
Combination 0 in 5600 ft

Earthquake Activity

City Distance Mag. Time & Date
No recent earthquake activity has been reported nearby.
Minimum magnitude displayed is 2.5.

Coastal Water Temperatures

Place Temperature
No Stations Reporting

Nearby Weather Stations